sensor_id;sensor_type;location;lat;lon;timestamp;P1;durP1;ratioP1;P2;durP2;ratioP2
79592;SDS011;69074;45.164;9.704;2023-05-23T00:02:14;27.7;;;24.8;;
79592;SDS011;69074;45.164;9.704;2023-05-23T00:04:39;23.8;;;21.3;;
79592;SDS011;69074;45.164;9.704;2023-05-23T00:07:04;23.8;;;21.3;;
79592;SDS011;69074;45.164;9.704;2023-05-23T00:09:29;23.8;;;21.3;;
79592;SDS011;69074;45.164;9.704;2023-05-23T00:11:54;23.8;;;21.3;;
79592;SDS011;69074;45.164;9.704;2023-05-23T00:14:19;23.8;;;21.3;;
79592;SDS011;69074;45.164;9.704;2023-05-23T00:16:44;23.8;;;21.3;;
79592;SDS011;69074;45.164;9.704;2023-05-23T00:19:09;23.8;;;21.3;;
79592;SDS011;69074;45.164;9.704;2023-05-23T00:21:34;24.2;;;20.1;;
79592;SDS011;69074;45.164;9.704;2023-05-23T00:23:59;24.2;;;20.1;;
79592;SDS011;69074;45.164;9.704;2023-05-23T00:26:24;24.2;;;20.1;;
79592;SDS011;69074;45.164;9.704;2023-05-23T00:28:49;24.2;;;20.1;;
79592;SDS011;69074;45.164;9.704;2023-05-23T00:31:14;24.2;;;20.1;;
79592;SDS011;69074;45.164;9.704;2023-05-23T00:33:39;24.2;;;20.1;;
79592;SDS011;69074;45.164;9.704;2023-05-23T00:36:04;22.0;;;19.7;;
79592;SDS011;69074;45.164;9.704;2023-05-23T00:38:29;22.0;;;19.7;;
79592;SDS011;69074;45.164;9.704;2023-05-23T00:40:54;22.0;;;19.7;;
79592;SDS011;69074;45.164;9.704;2023-05-23T00:43:19;22.0;;;19.7;;
79592;SDS011;69074;45.164;9.704;2023-05-23T00:45:44;22.0;;;19.7;;
79592;SDS011;69074;45.164;9.704;2023-05-23T00:48:09;22.0;;;19.7;;
79592;SDS011;69074;45.164;9.704;2023-05-23T00:50:34;19.6;;;17.6;;
79592;SDS011;69074;45.164;9.704;2023-05-23T00:52:59;19.6;;;17.6;;
79592;SDS011;69074;45.164;9.704;2023-05-23T00:55:24;19.6;;;17.6;;
79592;SDS011;69074;45.164;9.704;2023-05-23T00:57:49;19.6;;;17.6;;
79592;SDS011;69074;45.164;9.704;2023-05-23T01:00:14;19.6;;;17.6;;
79592;SDS011;69074;45.164;9.704;2023-05-23T01:02:40;19.6;;;17.6;;
79592;SDS011;69074;45.164;9.704;2023-05-23T01:05:04;19.4;;;17.5;;
79592;SDS011;69074;45.164;9.704;2023-05-23T01:07:29;19.4;;;17.5;;
79592;SDS011;69074;45.164;9.704;2023-05-23T01:09:54;19.4;;;17.5;;
79592;SDS011;69074;45.164;9.704;2023-05-23T01:12:19;19.4;;;17.5;;
79592;SDS011;69074;45.164;9.704;2023-05-23T01:14:45;19.4;;;17.5;;
79592;SDS011;69074;45.164;9.704;2023-05-23T01:17:10;19.4;;;17.5;;
79592;SDS011;69074;45.164;9.704;2023-05-23T01:19:40;18.7;;;16.4;;
79592;SDS011;69074;45.164;9.704;2023-05-23T01:21:59;18.7;;;16.4;;
79592;SDS011;69074;45.164;9.704;2023-05-23T01:24:29;18.7;;;16.4;;
79592;SDS011;69074;45.164;9.704;2023-05-23T01:26:54;18.7;;;16.4;;
79592;SDS011;69074;45.164;9.704;2023-05-23T01:29:16;18.7;;;16.4;;
79592;SDS011;69074;45.164;9.704;2023-05-23T01:31:41;18.7;;;16.4;;
79592;SDS011;69074;45.164;9.704;2023-05-23T01:34:04;18.7;;;16.4;;
79592;SDS011;69074;45.164;9.704;2023-05-23T01:36:29;17.8;;;16.1;;
79592;SDS011;69074;45.164;9.704;2023-05-23T01:38:54;17.8;;;16.1;;
79592;SDS011;69074;45.164;9.704;2023-05-23T01:41:19;17.8;;;16.1;;
79592;SDS011;69074;45.164;9.704;2023-05-23T01:43:44;17.8;;;16.1;;
79592;SDS011;69074;45.164;9.704;2023-05-23T01:46:09;17.8;;;16.1;;
79592;SDS011;69074;45.164;9.704;2023-05-23T01:48:34;17.8;;;16.1;;
79592;SDS011;69074;45.164;9.704;2023-05-23T01:50:59;21.6;;;16.3;;
79592;SDS011;69074;45.164;9.704;2023-05-23T01:53:24;21.6;;;16.3;;
79592;SDS011;69074;45.164;9.704;2023-05-23T01:55:49;21.6;;;16.3;;
79592;SDS011;69074;45.164;9.704;2023-05-23T01:58:14;21.6;;;16.3;;
79592;SDS011;69074;45.164;9.704;2023-05-23T02:00:39;21.6;;;16.3;;
79592;SDS011;69074;45.164;9.704;2023-05-23T02:03:04;21.6;;;16.3;;
79592;SDS011;69074;45.164;9.704;2023-05-23T02:05:29;18.9;;;16.9;;
79592;SDS011;69074;45.164;9.704;2023-05-23T02:07:54;18.9;;;16.9;;
79592;SDS011;69074;45.164;9.704;2023-05-23T02:10:19;18.9;;;16.9;;
79592;SDS011;69074;45.164;9.704;2023-05-23T02:12:44;18.9;;;16.9;;
79592;SDS011;69074;45.164;9.704;2023-05-23T02:15:09;18.9;;;16.9;;
79592;SDS011;69074;45.164;9.704;2023-05-23T02:17:34;18.9;;;16.9;;
79592;SDS011;69074;45.164;9.704;2023-05-23T02:19:59;17.3;;;15.7;;
79592;SDS011;69074;45.164;9.704;2023-05-23T02:22:24;17.3;;;15.7;;
79592;SDS011;69074;45.164;9.704;2023-05-23T02:24:49;17.3;;;15.7;;
79592;SDS011;69074;45.164;9.704;2023-05-23T02:27:14;17.3;;;15.7;;
79592;SDS011;69074;45.164;9.704;2023-05-23T02:29:39;17.3;;;15.7;;
79592;SDS011;69074;45.164;9.704;2023-05-23T02:32:04;17.3;;;15.7;;
79592;SDS011;69074;45.164;9.704;2023-05-23T02:34:29;17.9;;;16.0;;
79592;SDS011;69074;45.164;9.704;2023-05-23T02:36:54;17.9;;;16.0;;
79592;SDS011;69074;45.164;9.704;2023-05-23T02:39:19;17.9;;;16.0;;
79592;SDS011;69074;45.164;9.704;2023-05-23T02:41:44;17.9;;;16.0;;
79592;SDS011;69074;45.164;9.704;2023-05-23T02:44:09;17.9;;;16.0;;
79592;SDS011;69074;45.164;9.704;2023-05-23T02:46:34;17.9;;;16.0;;
79592;SDS011;69074;45.164;9.704;2023-05-23T02:48:59;17.9;;;16.0;;
79592;SDS011;69074;45.164;9.704;2023-05-23T02:51:24;18.1;;;16.2;;
79592;SDS011;69074;45.164;9.704;2023-05-23T02:53:49;18.1;;;16.2;;
79592;SDS011;69074;45.164;9.704;2023-05-23T02:56:14;18.1;;;16.2;;
79592;SDS011;69074;45.164;9.704;2023-05-23T02:58:39;18.1;;;16.2;;
79592;SDS011;69074;45.164;9.704;2023-05-23T03:01:04;18.1;;;16.2;;
79592;SDS011;69074;45.164;9.704;2023-05-23T03:03:29;18.1;;;16.2;;
79592;SDS011;69074;45.164;9.704;2023-05-23T03:05:54;18.4;;;16.5;;
79592;SDS011;69074;45.164;9.704;2023-05-23T03:08:19;18.4;;;16.5;;
79592;SDS011;69074;45.164;9.704;2023-05-23T03:10:44;18.4;;;16.5;;
79592;SDS011;69074;45.164;9.704;2023-05-23T03:13:09;18.4;;;16.5;;
79592;SDS011;69074;45.164;9.704;2023-05-23T03:15:34;18.4;;;16.5;;
79592;SDS011;69074;45.164;9.704;2023-05-23T03:17:59;18.4;;;16.5;;
79592;SDS011;69074;45.164;9.704;2023-05-23T03:20:24;17.3;;;15.6;;
79592;SDS011;69074;45.164;9.704;2023-05-23T03:22:49;17.3;;;15.6;;
79592;SDS011;69074;45.164;9.704;2023-05-23T03:25:14;17.3;;;15.6;;
79592;SDS011;69074;45.164;9.704;2023-05-23T03:27:39;17.3;;;15.6;;
79592;SDS011;69074;45.164;9.704;2023-05-23T03:30:05;17.3;;;15.6;;
79592;SDS011;69074;45.164;9.704;2023-05-23T03:32:29;17.3;;;15.6;;
79592;SDS011;69074;45.164;9.704;2023-05-23T03:34:54;17.9;;;16.0;;
79592;SDS011;69074;45.164;9.704;2023-05-23T03:37:19;17.9;;;16.0;;
79592;SDS011;69074;45.164;9.704;2023-05-23T03:39:44;17.9;;;16.0;;
79592;SDS011;69074;45.164;9.704;2023-05-23T03:42:09;17.9;;;16.0;;
79592;SDS011;69074;45.164;9.704;2023-05-23T03:44:34;17.9;;;16.0;;
79592;SDS011;69074;45.164;9.704;2023-05-23T03:46:59;17.9;;;16.0;;
79592;SDS011;69074;45.164;9.704;2023-05-23T03:49:24;19.3;;;16.7;;
79592;SDS011;69074;45.164;9.704;2023-05-23T03:51:49;19.3;;;16.7;;
79592;SDS011;69074;45.164;9.704;2023-05-23T03:54:14;19.3;;;16.7;;
79592;SDS011;69074;45.164;9.704;2023-05-23T03:56:39;19.3;;;16.7;;
79592;SDS011;69074;45.164;9.704;2023-05-23T03:59:04;19.3;;;16.7;;
79592;SDS011;69074;45.164;9.704;2023-05-23T04:01:29;19.3;;;16.7;;
79592;SDS011;69074;45.164;9.704;2023-05-23T04:03:54;19.3;;;16.7;;
79592;SDS011;69074;45.164;9.704;2023-05-23T04:06:19;18.2;;;16.3;;
79592;SDS011;69074;45.164;9.704;2023-05-23T04:08:44;18.2;;;16.3;;
79592;SDS011;69074;45.164;9.704;2023-05-23T04:11:09;18.2;;;16.3;;
79592;SDS011;69074;45.164;9.704;2023-05-23T04:13:34;18.2;;;16.3;;
79592;SDS011;69074;45.164;9.704;2023-05-23T04:15:59;18.2;;;16.3;;
79592;SDS011;69074;45.164;9.704;2023-05-23T04:18:24;18.2;;;16.3;;
79592;SDS011;69074;45.164;9.704;2023-05-23T04:20:49;20.8;;;16.7;;
79592;SDS011;69074;45.164;9.704;2023-05-23T04:23:14;20.8;;;16.7;;
79592;SDS011;69074;45.164;9.704;2023-05-23T04:25:39;20.8;;;16.7;;
79592;SDS011;69074;45.164;9.704;2023-05-23T04:28:04;20.8;;;16.7;;
79592;SDS011;69074;45.164;9.704;2023-05-23T04:30:29;20.8;;;16.7;;
79592;SDS011;69074;45.164;9.704;2023-05-23T04:32:54;20.8;;;16.7;;
79592;SDS011;69074;45.164;9.704;2023-05-23T04:35:20;19.2;;;17.4;;
79592;SDS011;69074;45.164;9.704;2023-05-23T04:37:44;19.2;;;17.4;;
79592;SDS011;69074;45.164;9.704;2023-05-23T04:40:10;19.2;;;17.4;;
79592;SDS011;69074;45.164;9.704;2023-05-23T04:42:35;19.2;;;17.4;;
79592;SDS011;69074;45.164;9.704;2023-05-23T04:44:59;19.2;;;17.4;;
79592;SDS011;69074;45.164;9.704;2023-05-23T04:47:25;19.2;;;17.4;;
79592;SDS011;69074;45.164;9.704;2023-05-23T04:49:50;19.4;;;17.3;;
79592;SDS011;69074;45.164;9.704;2023-05-23T04:52:15;19.4;;;17.3;;
79592;SDS011;69074;45.164;9.704;2023-05-23T04:54:40;19.4;;;17.3;;
79592;SDS011;69074;45.164;9.704;2023-05-23T04:57:05;19.4;;;17.3;;
79592;SDS011;69074;45.164;9.704;2023-05-23T04:59:30;19.4;;;17.3;;
79592;SDS011;69074;45.164;9.704;2023-05-23T05:01:55;19.4;;;17.3;;
79592;SDS011;69074;45.164;9.704;2023-05-23T05:04:20;17.8;;;16.0;;
79592;SDS011;69074;45.164;9.704;2023-05-23T05:06:45;17.8;;;16.0;;
79592;SDS011;69074;45.164;9.704;2023-05-23T05:09:10;17.8;;;16.0;;
79592;SDS011;69074;45.164;9.704;2023-05-23T05:11:35;17.8;;;16.0;;
79592;SDS011;69074;45.164;9.704;2023-05-23T05:14:00;17.8;;;16.0;;
79592;SDS011;69074;45.164;9.704;2023-05-23T05:16:25;17.8;;;16.0;;
79592;SDS011;69074;45.164;9.704;2023-05-23T05:18:50;17.8;;;16.0;;
79592;SDS011;69074;45.164;9.704;2023-05-23T05:21:15;17.6;;;15.8;;
79592;SDS011;69074;45.164;9.704;2023-05-23T05:23:40;17.6;;;15.8;;
79592;SDS011;69074;45.164;9.704;2023-05-23T05:26:05;17.6;;;15.8;;
79592;SDS011;69074;45.164;9.704;2023-05-23T05:28:30;17.6;;;15.8;;
79592;SDS011;69074;45.164;9.704;2023-05-23T05:30:55;17.6;;;15.8;;
79592;SDS011;69074;45.164;9.704;2023-05-23T05:33:20;17.6;;;15.8;;
79592;SDS011;69074;45.164;9.704;2023-05-23T05:35:45;18.0;;;15.1;;
79592;SDS011;69074;45.164;9.704;2023-05-23T05:38:10;18.0;;;15.1;;
79592;SDS011;69074;45.164;9.704;2023-05-23T05:40:35;18.0;;;15.1;;
79592;SDS011;69074;45.164;9.704;2023-05-23T05:43:00;18.0;;;15.1;;
79592;SDS011;69074;45.164;9.704;2023-05-23T05:45:25;18.0;;;15.1;;
79592;SDS011;69074;45.164;9.704;2023-05-23T05:47:50;18.0;;;15.1;;
79592;SDS011;69074;45.164;9.704;2023-05-23T05:50:15;15.2;;;13.6;;
79592;SDS011;69074;45.164;9.704;2023-05-23T05:52:40;15.2;;;13.6;;
79592;SDS011;69074;45.164;9.704;2023-05-23T05:55:05;15.2;;;13.6;;
79592;SDS011;69074;45.164;9.704;2023-05-23T05:57:30;15.2;;;13.6;;
79592;SDS011;69074;45.164;9.704;2023-05-23T05:59:55;15.2;;;13.6;;
79592;SDS011;69074;45.164;9.704;2023-05-23T06:02:20;15.2;;;13.6;;
79592;SDS011;69074;45.164;9.704;2023-05-23T06:04:45;24.1;;;21.5;;
79592;SDS011;69074;45.164;9.704;2023-05-23T06:07:10;24.1;;;21.5;;
79592;SDS011;69074;45.164;9.704;2023-05-23T06:09:35;24.1;;;21.5;;
79592;SDS011;69074;45.164;9.704;2023-05-23T06:12:00;24.1;;;21.5;;
79592;SDS011;69074;45.164;9.704;2023-05-23T06:14:25;24.1;;;21.5;;
79592;SDS011;69074;45.164;9.704;2023-05-23T06:16:50;24.1;;;21.5;;
79592;SDS011;69074;45.164;9.704;2023-05-23T06:19:15;24.1;;;21.5;;
79592;SDS011;69074;45.164;9.704;2023-05-23T06:21:40;24.5;;;22.0;;
79592;SDS011;69074;45.164;9.704;2023-05-23T06:24:05;24.5;;;22.0;;
79592;SDS011;69074;45.164;9.704;2023-05-23T06:26:30;24.5;;;22.0;;
79592;SDS011;69074;45.164;9.704;2023-05-23T06:28:55;24.5;;;22.0;;
79592;SDS011;69074;45.164;9.704;2023-05-23T06:31:20;24.5;;;22.0;;
79592;SDS011;69074;45.164;9.704;2023-05-23T06:33:45;24.5;;;22.0;;
79592;SDS011;69074;45.164;9.704;2023-05-23T06:36:10;23.8;;;21.3;;
79592;SDS011;69074;45.164;9.704;2023-05-23T06:38:35;23.8;;;21.3;;
79592;SDS011;69074;45.164;9.704;2023-05-23T06:41:00;23.8;;;21.3;;
79592;SDS011;69074;45.164;9.704;2023-05-23T06:43:25;23.8;;;21.3;;
79592;SDS011;69074;45.164;9.704;2023-05-23T06:45:50;23.8;;;21.3;;
79592;SDS011;69074;45.164;9.704;2023-05-23T06:48:15;23.8;;;21.3;;
79592;SDS011;69074;45.164;9.704;2023-05-23T06:50:40;22.6;;;20.2;;
79592;SDS011;69074;45.164;9.704;2023-05-23T06:53:05;22.6;;;20.2;;
79592;SDS011;69074;45.164;9.704;2023-05-23T06:55:30;22.6;;;20.2;;
79592;SDS011;69074;45.164;9.704;2023-05-23T06:57:55;22.6;;;20.2;;
79592;SDS011;69074;45.164;9.704;2023-05-23T07:00:20;22.6;;;20.2;;
79592;SDS011;69074;45.164;9.704;2023-05-23T07:02:45;22.6;;;20.2;;
79592;SDS011;69074;45.164;9.704;2023-05-23T07:05:10;22.3;;;19.9;;
79592;SDS011;69074;45.164;9.704;2023-05-23T07:07:35;22.3;;;19.9;;
79592;SDS011;69074;45.164;9.704;2023-05-23T07:10:00;22.3;;;19.9;;
79592;SDS011;69074;45.164;9.704;2023-05-23T07:12:25;22.3;;;19.9;;
79592;SDS011;69074;45.164;9.704;2023-05-23T07:14:50;22.3;;;19.9;;
79592;SDS011;69074;45.164;9.704;2023-05-23T07:17:15;22.3;;;19.9;;
79592;SDS011;69074;45.164;9.704;2023-05-23T07:19:40;22.1;;;19.6;;
79592;SDS011;69074;45.164;9.704;2023-05-23T07:22:05;22.1;;;19.6;;
79592;SDS011;69074;45.164;9.704;2023-05-23T07:24:30;22.1;;;19.6;;
79592;SDS011;69074;45.164;9.704;2023-05-23T07:26:55;22.1;;;19.6;;
79592;SDS011;69074;45.164;9.704;2023-05-23T07:29:20;22.1;;;19.6;;
79592;SDS011;69074;45.164;9.704;2023-05-23T07:31:45;22.1;;;19.6;;
79592;SDS011;69074;45.164;9.704;2023-05-23T07:34:10;22.1;;;19.6;;
79592;SDS011;69074;45.164;9.704;2023-05-23T07:36:35;20.5;;;18.3;;
79592;SDS011;69074;45.164;9.704;2023-05-23T07:39:00;20.5;;;18.3;;
79592;SDS011;69074;45.164;9.704;2023-05-23T07:41:25;20.5;;;18.3;;
79592;SDS011;69074;45.164;9.704;2023-05-23T07:43:50;20.5;;;18.3;;
79592;SDS011;69074;45.164;9.704;2023-05-23T07:46:15;20.5;;;18.3;;
79592;SDS011;69074;45.164;9.704;2023-05-23T07:48:40;20.5;;;18.3;;
79592;SDS011;69074;45.164;9.704;2023-05-23T07:51:05;23.3;;;20.9;;
79592;SDS011;69074;45.164;9.704;2023-05-23T07:53:30;23.3;;;20.9;;
79592;SDS011;69074;45.164;9.704;2023-05-23T07:55:55;23.3;;;20.9;;
79592;SDS011;69074;45.164;9.704;2023-05-23T07:58:20;23.3;;;20.9;;
79592;SDS011;69074;45.164;9.704;2023-05-23T08:00:45;23.3;;;20.9;;
79592;SDS011;69074;45.164;9.704;2023-05-23T08:03:10;23.3;;;20.9;;
79592;SDS011;69074;45.164;9.704;2023-05-23T08:05:35;29.9;;;26.8;;
79592;SDS011;69074;45.164;9.704;2023-05-23T08:08:00;29.9;;;26.8;;
79592;SDS011;69074;45.164;9.704;2023-05-23T08:10:25;29.9;;;26.8;;
79592;SDS011;69074;45.164;9.704;2023-05-23T08:12:50;29.9;;;26.8;;
79592;SDS011;69074;45.164;9.704;2023-05-23T08:15:15;29.9;;;26.8;;
79592;SDS011;69074;45.164;9.704;2023-05-23T08:17:40;29.9;;;26.8;;
79592;SDS011;69074;45.164;9.704;2023-05-23T08:20:05;41.8;;;37.0;;
79592;SDS011;69074;45.164;9.704;2023-05-23T08:22:30;41.8;;;37.0;;
79592;SDS011;69074;45.164;9.704;2023-05-23T08:24:55;41.8;;;37.0;;
79592;SDS011;69074;45.164;9.704;2023-05-23T08:27:20;41.8;;;37.0;;
79592;SDS011;69074;45.164;9.704;2023-05-23T08:29:45;41.8;;;37.0;;
79592;SDS011;69074;45.164;9.704;2023-05-23T08:32:10;41.8;;;37.0;;
79592;SDS011;69074;45.164;9.704;2023-05-23T08:34:35;47.2;;;41.7;;
79592;SDS011;69074;45.164;9.704;2023-05-23T08:37:00;47.2;;;41.7;;
79592;SDS011;69074;45.164;9.704;2023-05-23T08:39:25;47.2;;;41.7;;
79592;SDS011;69074;45.164;9.704;2023-05-23T08:41:50;47.2;;;41.7;;
79592;SDS011;69074;45.164;9.704;2023-05-23T08:44:15;47.2;;;41.7;;
79592;SDS011;69074;45.164;9.704;2023-05-23T08:46:43;47.2;;;41.7;;
79592;SDS011;69074;45.164;9.704;2023-05-23T08:49:05;47.2;;;41.7;;
79592;SDS011;69074;45.164;9.704;2023-05-23T08:51:30;29.8;;;26.6;;
79592;SDS011;69074;45.164;9.704;2023-05-23T08:53:55;29.8;;;26.6;;
79592;SDS011;69074;45.164;9.704;2023-05-23T08:56:20;29.8;;;26.6;;
79592;SDS011;69074;45.164;9.704;2023-05-23T08:58:45;29.8;;;26.6;;
79592;SDS011;69074;45.164;9.704;2023-05-23T09:01:10;29.8;;;26.6;;
79592;SDS011;69074;45.164;9.704;2023-05-23T09:03:35;29.8;;;26.6;;
79592;SDS011;69074;45.164;9.704;2023-05-23T09:06:00;26.6;;;23.7;;
79592;SDS011;69074;45.164;9.704;2023-05-23T09:08:25;26.6;;;23.7;;
79592;SDS011;69074;45.164;9.704;2023-05-23T09:10:50;26.6;;;23.7;;
79592;SDS011;69074;45.164;9.704;2023-05-23T09:13:15;26.6;;;23.7;;
79592;SDS011;69074;45.164;9.704;2023-05-23T09:15:54;26.6;;;23.7;;
79592;SDS011;69074;45.164;9.704;2023-05-23T09:18:05;26.6;;;23.7;;
79592;SDS011;69074;45.164;9.704;2023-05-23T09:20:30;23.9;;;20.5;;
79592;SDS011;69074;45.164;9.704;2023-05-23T09:22:55;23.9;;;20.5;;
79592;SDS011;69074;45.164;9.704;2023-05-23T09:25:20;23.9;;;20.5;;
79592;SDS011;69074;45.164;9.704;2023-05-23T09:27:45;23.9;;;20.5;;
79592;SDS011;69074;45.164;9.704;2023-05-23T09:30:11;23.9;;;20.5;;
79592;SDS011;69074;45.164;9.704;2023-05-23T09:32:36;23.9;;;20.5;;
79592;SDS011;69074;45.164;9.704;2023-05-23T09:35:02;25.5;;;21.0;;
79592;SDS011;69074;45.164;9.704;2023-05-23T09:37:28;25.5;;;21.0;;
79592;SDS011;69074;45.164;9.704;2023-05-23T09:39:51;25.5;;;21.0;;
79592;SDS011;69074;45.164;9.704;2023-05-23T09:42:18;25.5;;;21.0;;
79592;SDS011;69074;45.164;9.704;2023-05-23T09:44:41;25.5;;;21.0;;
79592;SDS011;69074;45.164;9.704;2023-05-23T09:47:06;25.5;;;21.0;;
79592;SDS011;69074;45.164;9.704;2023-05-23T09:49:31;26.9;;;23.2;;
79592;SDS011;69074;45.164;9.704;2023-05-23T09:51:56;26.9;;;23.2;;
79592;SDS011;69074;45.164;9.704;2023-05-23T09:54:21;26.9;;;23.2;;
79592;SDS011;69074;45.164;9.704;2023-05-23T09:56:46;26.9;;;23.2;;
79592;SDS011;69074;45.164;9.704;2023-05-23T09:59:11;26.9;;;23.2;;
79592;SDS011;69074;45.164;9.704;2023-05-23T10:01:36;26.9;;;23.2;;
79592;SDS011;69074;45.164;9.704;2023-05-23T10:04:01;26.9;;;23.2;;
79592;SDS011;69074;45.164;9.704;2023-05-23T10:06:27;28.6;;;25.4;;
79592;SDS011;69074;45.164;9.704;2023-05-23T10:08:51;28.6;;;25.4;;
79592;SDS011;69074;45.164;9.704;2023-05-23T10:13:41;28.6;;;25.4;;
79592;SDS011;69074;45.164;9.704;2023-05-23T10:16:07;28.6;;;25.4;;
79592;SDS011;69074;45.164;9.704;2023-05-23T10:18:33;28.6;;;25.4;;
79592;SDS011;69074;45.164;9.704;2023-05-23T10:20:56;29.2;;;24.9;;
79592;SDS011;69074;45.164;9.704;2023-05-23T10:23:21;29.2;;;24.9;;
79592;SDS011;69074;45.164;9.704;2023-05-23T10:25:46;29.2;;;24.9;;
79592;SDS011;69074;45.164;9.704;2023-05-23T10:28:11;29.2;;;24.9;;
79592;SDS011;69074;45.164;9.704;2023-05-23T10:30:36;29.2;;;24.9;;
79592;SDS011;69074;45.164;9.704;2023-05-23T10:33:01;29.2;;;24.9;;
79592;SDS011;69074;45.164;9.704;2023-05-23T10:35:31;23.7;;;21.2;;
79592;SDS011;69074;45.164;9.704;2023-05-23T10:37:54;23.7;;;21.2;;
79592;SDS011;69074;45.164;9.704;2023-05-23T10:40:19;23.7;;;21.2;;
79592;SDS011;69074;45.164;9.704;2023-05-23T10:42:42;23.7;;;21.2;;
79592;SDS011;69074;45.164;9.704;2023-05-23T10:45:12;23.7;;;21.2;;
79592;SDS011;69074;45.164;9.704;2023-05-23T10:47:31;23.7;;;21.2;;
79592;SDS011;69074;45.164;9.704;2023-05-23T10:49:56;30.2;;;25.6;;
79592;SDS011;69074;45.164;9.704;2023-05-23T10:52:22;30.2;;;25.6;;
79592;SDS011;69074;45.164;9.704;2023-05-23T10:54:47;30.2;;;25.6;;
79592;SDS011;69074;45.164;9.704;2023-05-23T10:57:14;30.2;;;25.6;;
79592;SDS011;69074;45.164;9.704;2023-05-23T10:59:36;30.2;;;25.6;;
79592;SDS011;69074;45.164;9.704;2023-05-23T11:02:01;30.2;;;25.6;;
79592;SDS011;69074;45.164;9.704;2023-05-23T11:04:27;26.7;;;22.7;;
79592;SDS011;69074;45.164;9.704;2023-05-23T11:06:51;26.7;;;22.7;;
79592;SDS011;69074;45.164;9.704;2023-05-23T11:09:17;26.7;;;22.7;;
79592;SDS011;69074;45.164;9.704;2023-05-23T11:12:12;26.7;;;22.7;;
79592;SDS011;69074;45.164;9.704;2023-05-23T11:14:06;26.7;;;22.7;;
79592;SDS011;69074;45.164;9.704;2023-05-23T11:16:34;26.7;;;22.7;;
79592;SDS011;69074;45.164;9.704;2023-05-23T11:19:28;26.7;;;22.7;;
79592;SDS011;69074;45.164;9.704;2023-05-23T11:21:21;23.3;;;20.8;;
79592;SDS011;69074;45.164;9.704;2023-05-23T11:23:46;23.3;;;20.8;;
79592;SDS011;69074;45.164;9.704;2023-05-23T11:26:27;23.3;;;20.8;;
79592;SDS011;69074;45.164;9.704;2023-05-23T11:28:54;23.3;;;20.8;;
79592;SDS011;69074;45.164;9.704;2023-05-23T11:31:01;23.3;;;20.8;;
79592;SDS011;69074;45.164;9.704;2023-05-23T11:33:26;23.3;;;20.8;;
79592;SDS011;69074;45.164;9.704;2023-05-23T11:35:51;20.2;;;17.8;;
79592;SDS011;69074;45.164;9.704;2023-05-23T11:38:16;20.2;;;17.8;;
79592;SDS011;69074;45.164;9.704;2023-05-23T11:40:41;20.2;;;17.8;;
79592;SDS011;69074;45.164;9.704;2023-05-23T11:43:06;20.2;;;17.8;;
79592;SDS011;69074;45.164;9.704;2023-05-23T11:45:31;20.2;;;17.8;;
79592;SDS011;69074;45.164;9.704;2023-05-23T11:47:56;20.2;;;17.8;;
79592;SDS011;69074;45.164;9.704;2023-05-23T11:50:21;29.6;;;24.8;;
79592;SDS011;69074;45.164;9.704;2023-05-23T11:52:46;29.6;;;24.8;;
79592;SDS011;69074;45.164;9.704;2023-05-23T11:55:11;29.6;;;24.8;;
79592;SDS011;69074;45.164;9.704;2023-05-23T11:57:36;29.6;;;24.8;;
79592;SDS011;69074;45.164;9.704;2023-05-23T12:00:01;29.6;;;24.8;;
79592;SDS011;69074;45.164;9.704;2023-05-23T12:02:26;29.6;;;24.8;;
79592;SDS011;69074;45.164;9.704;2023-05-23T12:04:51;18.5;;;16.6;;
79592;SDS011;69074;45.164;9.704;2023-05-23T12:07:18;18.5;;;16.6;;
79592;SDS011;69074;45.164;9.704;2023-05-23T12:09:41;18.5;;;16.6;;
79592;SDS011;69074;45.164;9.704;2023-05-23T12:12:06;18.5;;;16.6;;
79592;SDS011;69074;45.164;9.704;2023-05-23T12:14:31;18.5;;;16.6;;
79592;SDS011;69074;45.164;9.704;2023-05-23T12:16:56;18.5;;;16.6;;
79592;SDS011;69074;45.164;9.704;2023-05-23T12:19:21;16.9;;;15.3;;
79592;SDS011;69074;45.164;9.704;2023-05-23T12:21:47;16.9;;;15.3;;
79592;SDS011;69074;45.164;9.704;2023-05-23T12:24:13;16.9;;;15.3;;
79592;SDS011;69074;45.164;9.704;2023-05-23T12:26:44;16.9;;;15.3;;
79592;SDS011;69074;45.164;9.704;2023-05-23T12:29:01;16.9;;;15.3;;
79592;SDS011;69074;45.164;9.704;2023-05-23T12:31:26;16.9;;;15.3;;
79592;SDS011;69074;45.164;9.704;2023-05-23T12:33:51;16.9;;;15.3;;
79592;SDS011;69074;45.164;9.704;2023-05-23T12:36:20;21.7;;;18.6;;
79592;SDS011;69074;45.164;9.704;2023-05-23T12:38:42;21.7;;;18.6;;
79592;SDS011;69074;45.164;9.704;2023-05-23T12:41:07;21.7;;;18.6;;
79592;SDS011;69074;45.164;9.704;2023-05-23T12:43:32;21.7;;;18.6;;
79592;SDS011;69074;45.164;9.704;2023-05-23T12:45:56;21.7;;;18.6;;
79592;SDS011;69074;45.164;9.704;2023-05-23T12:48:21;21.7;;;18.6;;
79592;SDS011;69074;45.164;9.704;2023-05-23T12:50:46;17.0;;;15.0;;
79592;SDS011;69074;45.164;9.704;2023-05-23T12:53:12;17.0;;;15.0;;
79592;SDS011;69074;45.164;9.704;2023-05-23T12:55:37;17.0;;;15.0;;
79592;SDS011;69074;45.164;9.704;2023-05-23T12:58:02;17.0;;;15.0;;
79592;SDS011;69074;45.164;9.704;2023-05-23T13:00:27;17.0;;;15.0;;
79592;SDS011;69074;45.164;9.704;2023-05-23T13:02:52;17.0;;;15.0;;
79592;SDS011;69074;45.164;9.704;2023-05-23T13:05:17;25.9;;;23.1;;
79592;SDS011;69074;45.164;9.704;2023-05-23T13:07:42;25.9;;;23.1;;
79592;SDS011;69074;45.164;9.704;2023-05-23T13:10:07;25.9;;;23.1;;
79592;SDS011;69074;45.164;9.704;2023-05-23T13:12:32;25.9;;;23.1;;
79592;SDS011;69074;45.164;9.704;2023-05-23T13:14:57;25.9;;;23.1;;
79592;SDS011;69074;45.164;9.704;2023-05-23T13:17:22;25.9;;;23.1;;
79592;SDS011;69074;45.164;9.704;2023-05-23T13:19:47;24.8;;;18.1;;
79592;SDS011;69074;45.164;9.704;2023-05-23T13:22:12;24.8;;;18.1;;
79592;SDS011;69074;45.164;9.704;2023-05-23T13:24:37;24.8;;;18.1;;
79592;SDS011;69074;45.164;9.704;2023-05-23T13:27:02;24.8;;;18.1;;
79592;SDS011;69074;45.164;9.704;2023-05-23T13:29:27;24.8;;;18.1;;
79592;SDS011;69074;45.164;9.704;2023-05-23T13:31:52;24.8;;;18.1;;
79592;SDS011;69074;45.164;9.704;2023-05-23T13:34:17;24.8;;;18.1;;
79592;SDS011;69074;45.164;9.704;2023-05-23T13:36:42;28.4;;;18.0;;
79592;SDS011;69074;45.164;9.704;2023-05-23T13:39:07;28.4;;;18.0;;
79592;SDS011;69074;45.164;9.704;2023-05-23T13:41:32;28.4;;;18.0;;
79592;SDS011;69074;45.164;9.704;2023-05-23T13:43:57;28.4;;;18.0;;
79592;SDS011;69074;45.164;9.704;2023-05-23T13:46:22;28.4;;;18.0;;
79592;SDS011;69074;45.164;9.704;2023-05-23T13:48:47;28.4;;;18.0;;
79592;SDS011;69074;45.164;9.704;2023-05-23T13:51:12;26.7;;;18.3;;
79592;SDS011;69074;45.164;9.704;2023-05-23T13:53:37;26.7;;;18.3;;
79592;SDS011;69074;45.164;9.704;2023-05-23T13:56:02;26.7;;;18.3;;
79592;SDS011;69074;45.164;9.704;2023-05-23T13:58:27;26.7;;;18.3;;
79592;SDS011;69074;45.164;9.704;2023-05-23T14:00:52;26.7;;;18.3;;
79592;SDS011;69074;45.164;9.704;2023-05-23T14:03:17;26.7;;;18.3;;
79592;SDS011;69074;45.164;9.704;2023-05-23T14:05:42;21.8;;;15.6;;
79592;SDS011;69074;45.164;9.704;2023-05-23T14:08:07;21.8;;;15.6;;
79592;SDS011;69074;45.164;9.704;2023-05-23T14:10:32;21.8;;;15.6;;
79592;SDS011;69074;45.164;9.704;2023-05-23T14:12:57;21.8;;;15.6;;
79592;SDS011;69074;45.164;9.704;2023-05-23T14:15:22;21.8;;;15.6;;
79592;SDS011;69074;45.164;9.704;2023-05-23T14:17:47;21.8;;;15.6;;
79592;SDS011;69074;45.164;9.704;2023-05-23T14:20:12;17.1;;;13.0;;
79592;SDS011;69074;45.164;9.704;2023-05-23T14:22:37;17.1;;;13.0;;
79592;SDS011;69074;45.164;9.704;2023-05-23T14:25:02;17.1;;;13.0;;
79592;SDS011;69074;45.164;9.704;2023-05-23T14:27:27;17.1;;;13.0;;
79592;SDS011;69074;45.164;9.704;2023-05-23T14:29:52;17.1;;;13.0;;
79592;SDS011;69074;45.164;9.704;2023-05-23T14:32:17;17.1;;;13.0;;
79592;SDS011;69074;45.164;9.704;2023-05-23T14:34:42;13.6;;;11.0;;
79592;SDS011;69074;45.164;9.704;2023-05-23T14:37:07;13.6;;;11.0;;